Ironton, Missouri
Current Conditions -  °F | °C
As of 1:55 PM on Wednesday 17 Dec 2014 (Local Time) from KFAM Reporting Station
Clear Clear  
Wind Chill: 39°   Ceiling: Unl
Heat Index: 39°   Visibility: 10mi
Dew Point: 25°   Wind: 3mph
Humidity: 56%   Direction: 210°SSW
Pressure: 30.26"   Gusts: NA
Location:  37.6°N, 90.63°W
Report Text: KFAM 171955Z AUTO 21003KT 10SM CLR 04/M04 A3026 RMK AO1
Loading
Personal Weather Stations






























Interactive Weather Map New forecast layout! Learn more

10-Day Weather Forecast

Advertisements
Track Severe Weather on mobile